Latest Weather Observations for Carnarvon

IDW60801

Issued at 9:03 pm WST Monday 18 June 2018 (issued every 10 minutes, with the page automatically refreshed every 10 minutes)

About weather observations | Map of weather stations | Latest weather observations for WA | Other Formats
Station Details ID: 006011 Name: CARNARVON AIRPORT Lat: -24.89 Lon: 113.67 Height: 4.0 m
Data from the previous 72 hours. | See also: Recent months at Carnarvon
Date/Time
WST
Temp
°C
App
Temp
°C
Dew
Point
°C
Rel
Hum
%
Delta-T
°C
Wind Press
QNH
hPa
Press
MSL
hPa
Rain since
9am
mm
Dir  Spd
km/h
Gust
km/h
Spd
kts
Gust
kts
18/08:30pm 16.8 15.9 15.8 94 0.6 SE 15 19 8 10 1020.6 - 4.8
18/08:00pm 16.9 17.0 16.4 97 0.3 SE 11 13 6 7 1021.6 - 4.8
18/07:30pm 17.0 16.7 16.4 96 0.4 SSE 13 15 7 8 1021.5 - 4.8
18/07:00pm 16.9 16.2 16.3 96 0.4 E 15 20 8 11 1020.1 - 4.8
18/06:30pm 17.1 16.4 16.3 95 0.5 SE 15 19 8 10 1020.3 - 4.8
18/06:00pm 17.2 16.0 16.2 94 0.6 SSE 17 20 9 11 1019.6 1019.6 4.8
18/05:30pm 17.2 15.7 16.4 95 0.5 ESE 19 24 10 13 1018.9 - 4.8
18/05:00pm 17.4 16.1 16.8 96 0.4 SE 19 22 10 12 1019.7 - 4.8
18/04:30pm 17.2 15.2 16.4 95 0.5 SE 22 32 12 17 1019.2 - 4.8
18/04:00pm 17.3 15.2 16.3 94 0.6 SE 22 32 12 17 1018.9 - 4.8
18/03:39pm 17.0 14.3 16.5 97 0.3 SE 26 35 14 19 1018.4 - 4.8
18/03:30pm 16.7 13.9 16.4 98 0.2 SE 26 37 14 20 1018.7 - 4.8
18/03:22pm 16.9 13.1 16.6 98 0.2 SSE 32 41 17 22 1018.5 - 4.8
18/03:00pm 17.7 15.6 17.2 97 0.3 SSE 24 35 13 19 1019.0 1019.0 4.8
18/02:30pm 17.7 17.5 17.5 99 0.1 SE 15 20 8 11 1018.0 - 4.8
18/02:00pm 17.4 17.0 17.2 99 0.1 SE 15 19 8 10 1017.7 - 4.8
18/01:30pm 17.1 15.8 16.8 98 0.2 SSE 19 26 10 14 1017.8 - 4.6
18/01:08pm 17.1 14.5 16.9 99 0.1 S 26 37 14 20 1019.1 - 4.2
18/01:00pm 17.1 13.8 16.9 99 0.1 S 30 37 16 20 1019.5 - 4.2
18/12:48pm 16.8 12.8 16.6 99 0.1 S 33 46 18 25 1019.6 - 3.8
18/12:46pm 17.0 13.6 16.8 99 0.1 S 30 46 16 25 1019.6 - 3.6
18/12:30pm 18.2 16.9 18.2 100 0.0 SSE 22 28 12 15 1019.6 - 3.2
18/12:00pm 18.4 17.2 18.4 100 0.0 SSE 22 28 12 15 1019.1 1019.1 2.6
18/11:30am 18.4 17.2 18.4 100 0.0 SSE 22 28 12 15 1019.2 - 2.2
18/11:00am 18.6 18.1 18.6 100 0.0 SE 19 22 10 12 1019.0 - 1.8
18/10:52am 18.6 18.1 18.6 100 0.0 S 19 22 10 12 1019.7 - 1.8
18/10:44am 18.7 18.0 18.7 100 0.0 S 20 26 11 14 1019.8 - 1.4
18/10:30am 18.8 19.0 18.6 99 0.1 SW 15 20 8 11 1020.0 - 1.0
18/10:29am 18.9 19.2 18.7 99 0.1 SW 15 19 8 10 1020.0 - 0.8
18/10:00am 19.3 21.8 19.1 99 0.1 SSE 4 9 2 5 1019.1 - 0.0
18/09:39am 19.3 20.9 19.1 99 0.1 SSE 9 11 5 6 1018.3 - 0.0
18/09:30am 19.3 21.9 19.3 100 0.0 ENE 4 9 2 5 1017.9 - 0.0
18/09:21am 19.3 22.3 19.3 100 0.0 NE 2 6 1 3 1018.5 - 0.0
18/09:00am 19.0 21.1 19.0 100 0.0 NE 6 9 3 5 1018.2 1018.2 15.4
18/08:44am 18.7 20.5 18.7 100 0.0 N 7 9 4 5 1018.4 - 15.4
18/08:30am 18.6 20.9 18.6 100 0.0 N 4 7 2 4 1018.8 - 15.4
18/08:25am 18.6 21.7 18.6 100 0.0 CALM 0 7 0 4 1019.0 - 15.4
18/08:01am 18.3 20.1 18.3 100 0.0 N 6 9 3 5 1018.7 - 15.0
18/08:00am 18.3 20.1 18.3 100 0.0 N 6 9 3 5 1018.7 - 15.0
18/07:30am 18.3 19.9 18.3 100 0.0 NNE 7 9 4 5 1018.6 - 13.8
18/07:25am 18.4 19.7 18.4 100 0.0 NNE 9 11 5 6 1018.4 - 13.6
18/07:00am 18.6 19.6 18.6 100 0.0 NE 11 13 6 7 1017.9 - 12.6
18/06:44am 18.7 20.5 18.7 100 0.0 NNE 7 11 4 6 1017.7 - 12.6
18/06:30am 18.9 20.8 18.9 100 0.0 NE 7 9 4 5 1017.7 - 12.4
18/06:22am 18.9 20.8 18.9 100 0.0 ENE 7 9 4 5 1017.7 - 11.8
18/06:00am 19.0 20.8 18.8 99 0.1 ESE 7 11 4 6 1017.3 1017.3 11.2
18/05:30am 19.7 21.9 19.7 100 0.0 SSE 7 11 4 6 1017.2 - 10.6
18/05:29am 19.7 21.9 19.7 100 0.0 SSE 7 11 4 6 1017.2 - 10.6
18/05:27am 19.7 21.9 19.7 100 0.0 S 7 11 4 6 1017.2 - 10.6
18/05:08am 19.5 21.7 19.5 100 0.0 NE 7 11 4 6 1017.2 - 9.8
18/05:00am 19.5 21.3 19.5 100 0.0 NE 9 11 5 6 1017.2 - 9.2
18/04:30am 19.4 21.1 19.4 100 0.0 ENE 9 11 5 6 1016.8 - 7.8
18/04:00am 19.5 21.8 19.5 100 0.0 ESE 6 7 3 4 1016.5 - 6.6
18/03:30am 19.4 21.5 19.4 100 0.0 SE 7 9 4 5 1016.3 - 5.6
18/03:28am 19.4 21.5 19.4 100 0.0 SE 7 9 4 5 1016.3 - 5.6
18/03:26am 19.4 21.7 19.4 100 0.0 SE 6 9 3 5 1016.2 - 5.6
18/03:00am 19.5 21.3 19.5 100 0.0 ESE 9 11 5 6 1016.2 1016.2 3.4
18/02:30am 19.7 22.1 19.7 100 0.0 NE 6 13 3 7 1016.8 - 1.6
18/02:00am 19.7 21.6 19.7 100 0.0 NNE 9 11 5 6 1016.9 - 1.6
18/01:57am 19.7 21.6 19.7 100 0.0 NNE 9 11 5 6 1016.8 - 1.6
18/01:30am 19.5 21.3 19.5 100 0.0 ESE 9 11 5 6 1016.2 - 1.6
18/01:00am 19.6 21.8 19.6 100 0.0 SSW 7 9 4 5 1016.6 - 1.6
18/12:30am 20.3 23.4 20.3 100 0.0 ENE 4 7 2 4 1016.8 - 1.6
18/12:00am 20.0 22.3 19.8 99 0.1 ENE 7 11 4 6 1016.7 1016.7 1.6
 
Date/Time
WST
Temp
°C
App
Temp
°C
Dew
Point
°C
Rel
Hum
%
Delta-T
°C
Wind Press
QNH
hPa
Press
MSL
hPa
Rain since
9am
mm
Dir  Spd
km/h
Gust
km/h
Spd
kts
Gust
kts
17/11:30pm 19.9 21.7 19.6 98 0.2 NE 9 11 5 6 1017.1 - 1.4
17/11:00pm 20.2 22.3 19.4 95 0.5 NNE 7 9 4 5 1017.5 - 1.0
17/10:57pm 20.1 21.8 19.3 95 0.5 NNE 9 9 5 5 1017.5 - 0.8
17/10:41pm 20.5 22.6 19.3 93 0.8 NW 7 9 4 5 1017.6 - 0.4
17/10:30pm 20.8 22.8 19.1 90 1.1 WNW 7 9 4 5 1017.6 - 0.2
17/10:00pm 21.3 23.1 18.7 85 1.6 WNW 7 9 4 5 1017.3 - 0.0
17/09:30pm 21.4 22.8 18.6 84 1.8 W 9 11 5 6 1016.8 - 0.0
17/09:00pm 21.6 22.6 18.6 83 1.9 W 11 13 6 7 1017.1 1017.1 0.0
17/08:30pm 21.8 22.6 19.0 84 1.8 WSW 13 17 7 9 1017.2 - 0.0
17/08:00pm 22.4 23.4 19.4 83 1.9 WNW 13 17 7 9 1016.9 - 0.0
17/07:30pm 22.8 22.6 18.6 77 2.6 WNW 17 20 9 11 1016.7 - 0.0
17/07:00pm 22.6 22.7 18.4 77 2.6 WNW 15 17 8 9 1016.4 - 0.0
17/06:30pm 22.7 22.6 17.8 74 3.0 NW 15 19 8 10 1016.2 - 0.0
17/06:00pm 22.9 22.6 17.4 71 3.4 NW 15 22 8 12 1016.0 1016.0 0.0
17/05:30pm 23.3 22.3 16.6 66 4.1 NW 17 20 9 11 1015.9 - 0.0
17/05:00pm 23.7 22.9 17.2 67 4.0 NW 17 22 9 12 1015.7 - 0.0
17/04:30pm 24.6 22.9 16.3 60 5.1 WNW 20 30 11 16 1015.7 - 0.0
17/04:00pm 25.6 23.6 15.6 54 6.1 WNW 20 28 11 15 1015.6 - 0.0
17/03:30pm 25.6 22.9 14.7 51 6.5 NW 22 30 12 16 1015.6 - 0.0
17/03:00pm 26.3 23.3 13.8 46 7.4 WNW 22 30 12 16 1015.7 1015.7 0.0
17/02:30pm 27.0 22.9 11.5 38 8.9 NW 24 33 13 18 1015.9 - 0.0
17/02:00pm 28.3 22.9 8.1 28 11.0 N 26 37 14 20 1015.8 - 0.0
17/01:30pm 28.4 22.8 8.7 29 10.8 N 28 39 15 21 1015.9 - 0.0
17/01:00pm 28.0 22.7 8.3 29 10.7 N 26 32 14 17 1016.3 - 0.0
17/12:30pm 27.1 21.3 8.0 30 10.3 N 28 32 15 17 1016.6 - 0.0
17/12:00pm 27.0 22.3 9.4 33 9.7 NNE 24 30 13 16 1017.1 1017.1 0.0
17/11:30am 25.1 21.0 8.6 35 8.9 N 20 24 11 13 1017.7 - 0.0
17/11:00am 24.4 20.0 7.5 34 8.9 NNE 20 24 11 13 1018.0 - 0.0
17/10:30am 22.9 18.6 7.0 36 8.2 NNE 19 24 10 13 1018.1 - 0.0
17/10:00am 22.1 17.9 5.9 35 8.2 NE 17 20 9 11 1018.2 - 0.0
17/09:30am 20.0 16.6 6.0 40 7.0 NNE 13 17 7 9 1018.3 - 0.0
17/09:00am 18.6 16.3 5.8 43 6.3 S 7 11 4 6 1018.2 1018.2 0.0
17/08:30am 16.3 15.8 7.8 57 4.3 CALM 0 0 0 0 1018.4 - 0.0
17/08:00am 13.6 13.4 8.9 73 2.4 CALM 0 0 0 0 1018.5 - 0.0
17/07:30am 13.4 11.1 5.8 60 3.6 S 7 7 4 4 1018.3 - 0.0
17/07:00am 13.0 11.0 6.1 63 3.3 S 6 7 3 4 1018.0 - 0.0
17/06:30am 12.6 11.9 7.1 69 2.7 CALM 0 0 0 0 1017.9 - 0.0
17/06:00am 11.3 9.6 8.2 81 1.5 SSE 7 9 4 5 1017.8 1017.8 0.0
17/05:30am 12.2 10.5 8.3 77 1.9 SSE 7 9 4 5 1017.8 - 0.0
17/05:00am 11.1 8.6 8.0 81 1.5 SSE 11 13 6 7 1017.7 - 0.0
17/04:30am 11.0 8.4 7.7 80 1.6 SE 11 11 6 6 1017.8 - 0.0
17/04:00am 11.3 9.0 7.4 77 1.9 E 9 11 5 6 1018.1 - 0.0
17/03:30am 11.1 9.0 6.8 75 2.0 E 7 7 4 4 1018.3 - 0.0
17/03:00am 11.9 9.4 6.4 69 2.6 E 9 11 5 6 1018.5 1018.5 0.0
17/02:30am 12.2 10.3 6.9 70 2.5 E 6 7 3 4 1018.6 - 0.0
17/02:00am 12.4 10.5 7.7 73 2.3 E 7 9 4 5 1018.9 - 0.0
17/01:30am 12.7 11.1 7.8 72 2.4 E 6 7 3 4 1018.9 - 0.0
17/01:00am 12.5 11.7 8.0 74 2.2 E 2 6 1 3 1019.0 - 0.0
17/12:30am 12.6 10.8 8.1 74 2.2 ESE 7 11 4 6 1019.1 - 0.0
17/12:00am 12.4 9.5 8.3 76 2.0 ESE 13 13 7 7 1019.1 1019.1 0.0
 
Date/Time
WST
Temp
°C
App
Temp
°C
Dew
Point
°C
Rel
Hum
%
Delta-T
°C
Wind Press
QNH
hPa
Press
MSL
hPa
Rain since
9am
mm
Dir  Spd
km/h
Gust
km/h
Spd
kts
Gust
kts
16/11:30pm 13.0 10.7 9.1 77 2.0 ESE 11 15 6 8 1019.5 - 0.0
16/11:00pm 12.5 9.6 9.7 83 1.4 ESE 15 17 8 9 1020.0 - 0.0
16/10:30pm 12.9 11.4 10.6 86 1.2 SE 9 11 5 6 1020.1 - 0.0
16/10:00pm 12.7 10.6 9.7 82 1.5 SE 11 13 6 7 1020.2 - 0.0
16/09:30pm 13.1 11.0 9.7 80 1.7 SE 11 13 6 7 1020.2 - 0.0
16/09:00pm 13.3 11.3 10.1 81 1.6 SSE 11 15 6 8 1020.4 1020.4 0.0
16/08:30pm 14.0 12.7 11.2 83 1.5 S 9 9 5 5 1020.3 - 0.0
16/08:00pm 14.9 13.7 11.7 81 1.7 SSE 9 11 5 6 1020.2 - 0.0
16/07:30pm 15.5 14.0 11.9 79 2.0 SSE 11 13 6 7 1020.0 - 0.0
16/07:00pm 16.7 15.2 12.0 74 2.6 SSW 11 11 6 6 1019.9 - 0.0
16/06:30pm 17.4 16.8 13.5 78 2.2 SSW 9 11 5 6 1019.6 - 0.0
16/06:00pm 18.4 17.7 13.3 72 2.9 SSW 9 11 5 6 1019.3 1019.3 0.0
16/05:30pm 20.2 19.9 13.4 65 3.9 SSW 7 9 4 5 1019.3 - 0.0
16/05:00pm 21.7 20.8 12.5 56 5.2 SSW 9 13 5 7 1019.2 - 0.0
16/04:30pm 22.3 21.4 13.6 58 5.0 SSW 11 15 6 8 1018.9 - 0.0
16/04:00pm 24.3 21.3 6.1 31 9.3 W 11 15 6 8 1018.9 - 0.0
16/03:30pm 24.5 21.6 8.0 35 8.8 WSW 13 17 7 9 1018.9 - 0.0
16/03:00pm 25.1 21.5 4.8 27 10.2 W 13 17 7 9 1019.1 1019.1 0.0
16/02:30pm 25.0 20.5 6.2 30 9.7 W 19 24 10 13 1019.1 - 0.0
16/02:00pm 25.9 21.8 4.4 25 10.8 NNW 15 22 8 12 1019.2 - 0.0
16/01:30pm 26.2 21.7 2.2 21 11.6 N 15 19 8 10 1019.4 - 0.0
16/01:00pm 25.7 20.6 3.0 23 11.1 NNE 19 26 10 14 1019.8 - 0.0
16/12:30pm 25.0 19.2 2.4 23 10.9 NNE 22 32 12 17 1020.2 - 0.0
16/12:00pm 24.3 18.2 2.5 24 10.4 NNE 24 33 13 18 1020.5 1020.5 0.0
16/11:30am 24.0 18.5 3.9 27 9.9 NNE 22 30 12 16 1020.8 - 0.0
16/11:00am 22.7 17.2 3.8 29 9.2 NNE 22 32 12 17 1021.1 - 0.0
16/10:30am 21.4 15.5 4.0 32 8.4 NE 24 32 13 17 1021.4 - 0.0
16/10:00am 20.1 14.2 3.8 34 7.8 NE 24 32 13 17 1021.7 - 0.0
16/09:30am 18.5 13.7 4.7 40 6.6 NE 19 24 10 13 1021.6 - 0.0
16/09:00am 16.9 12.6 5.2 46 5.6 NE 17 24 9 13 1021.5 1021.5 0.0
16/08:30am 14.5 10.3 5.6 55 4.2 ENE 17 20 9 11 1021.3 - 0.0
16/08:00am 12.2 9.2 5.8 65 3.0 E 11 13 6 7 1021.1 - 0.0
16/07:30am 9.5 6.3 5.1 74 2.0 E 11 11 6 6 1021.0 - 0.0
16/07:00am 9.0 5.3 4.4 73 2.0 ENE 13 15 7 8 1020.8 - 0.0
16/06:30am 9.8 5.8 4.8 71 2.2 E 15 17 8 9 1020.6 - 0.0
16/06:00am 10.2 6.3 5.2 71 2.3 E 15 17 8 9 1020.2 1020.2 0.0
16/05:30am 10.3 6.3 4.9 69 2.4 E 15 17 8 9 1020.1 - 0.0
16/05:00am 10.1 6.9 4.9 70 2.3 E 11 17 6 9 1020.0 - 0.0
16/04:30am 9.6 6.3 4.6 71 2.2 ESE 11 13 6 7 1020.1 - 0.0
16/04:00am 9.5 5.5 4.9 73 2.1 ESE 15 17 8 9 1020.2 - 0.0
16/03:30am 9.9 6.4 5.3 73 2.1 ESE 13 15 7 8 1020.4 - 0.0
16/03:00am 9.6 5.6 5.0 73 2.1 ESE 15 15 8 8 1020.6 1020.6 0.0
16/02:30am 10.8 7.3 5.3 69 2.5 SE 13 15 7 8 1020.9 - 0.0
16/02:00am 10.4 7.4 5.8 73 2.1 SE 11 11 6 6 1021.1 - 0.0
16/01:30am 10.5 7.1 5.7 72 2.2 SE 13 13 7 7 1021.2 - 0.0
16/01:00am 11.4 8.4 5.9 69 2.6 SE 11 13 6 7 1021.4 - 0.0
16/12:30am 11.3 8.7 6.0 70 2.5 SE 9 11 5 6 1021.5 - 0.0
16/12:00am 10.6 8.0 6.0 73 2.1 SE 9 9 5 5 1021.6 1021.6 0.0
 
Date/Time
WST
Temp
°C
App
Temp
°C
Dew
Point
°C
Rel
Hum
%
Delta-T
°C
Wind Press
QNH
hPa
Press
MSL
hPa
Rain since
9am
mm
Dir  Spd
km/h
Gust
km/h
Spd
kts
Gust
kts
15/11:30pm 11.3 7.9 6.0 70 2.5 SE 13 13 7 7 1021.8 - 0.0
15/11:00pm 11.8 9.3 6.7 71 2.4 SE 9 11 5 6 1021.9 - 0.0
15/10:30pm 12.3 9.5 7.0 70 2.5 SE 11 13 6 7 1022.1 - 0.0
15/10:00pm 12.6 9.5 7.1 69 2.7 SSE 13 15 7 8 1022.2 - 0.0
15/09:30pm 13.2 10.0 6.8 65 3.1 SE 13 15 7 8 1022.2 - 0.0

Other Formats:

Comma delimited format used in spreadsheet applications
http://www.bom.gov.au/fwo/IDW60801/IDW60801.94300.axf

JavaScript Object Notation format (JSON) in row-major order
http://www.bom.gov.au/fwo/IDW60801/IDW60801.94300.json